sensor_id;sensor_type;location;lat;lon;timestamp;P1;durP1;ratioP1;P2;durP2;ratioP2
1366;SDS011;16877;48.810;9.282;2023-09-30T00:02:13;5.57;;;3.97;;
1366;SDS011;16877;48.810;9.282;2023-09-30T00:04:40;6.20;;;3.90;;
1366;SDS011;16877;48.810;9.282;2023-09-30T00:07:07;5.83;;;3.90;;
1366;SDS011;16877;48.810;9.282;2023-09-30T00:09:36;5.13;;;3.57;;
1366;SDS011;16877;48.810;9.282;2023-09-30T00:12:03;7.30;;;4.23;;
1366;SDS011;16877;48.810;9.282;2023-09-30T00:14:33;7.20;;;3.87;;
1366;SDS011;16877;48.810;9.282;2023-09-30T00:17:01;5.20;;;3.30;;
1366;SDS011;16877;48.810;9.282;2023-09-30T00:19:27;5.43;;;3.07;;
1366;SDS011;16877;48.810;9.282;2023-09-30T00:21:57;5.60;;;3.40;;
1366;SDS011;16877;48.810;9.282;2023-09-30T00:24:25;6.10;;;2.97;;
1366;SDS011;16877;48.810;9.282;2023-09-30T00:26:52;5.20;;;3.00;;
1366;SDS011;16877;48.810;9.282;2023-09-30T00:29:20;6.13;;;3.43;;
1366;SDS011;16877;48.810;9.282;2023-09-30T00:31:49;5.67;;;3.37;;
1366;SDS011;16877;48.810;9.282;2023-09-30T00:34:16;4.60;;;2.80;;
1366;SDS011;16877;48.810;9.282;2023-09-30T00:36:44;5.10;;;2.57;;
1366;SDS011;16877;48.810;9.282;2023-09-30T00:39:12;4.77;;;2.70;;
1366;SDS011;16877;48.810;9.282;2023-09-30T00:41:40;3.73;;;2.27;;
1366;SDS011;16877;48.810;9.282;2023-09-30T00:44:07;3.50;;;2.23;;
1366;SDS011;16877;48.810;9.282;2023-09-30T00:46:35;3.87;;;2.37;;
1366;SDS011;16877;48.810;9.282;2023-09-30T00:49:08;5.00;;;2.43;;
1366;SDS011;16877;48.810;9.282;2023-09-30T00:51:36;4.47;;;2.33;;
1366;SDS011;16877;48.810;9.282;2023-09-30T00:54:06;5.10;;;2.50;;
1366;SDS011;16877;48.810;9.282;2023-09-30T00:56:34;3.67;;;1.97;;
1366;SDS011;16877;48.810;9.282;2023-09-30T00:59:04;3.40;;;2.30;;
1366;SDS011;16877;48.810;9.282;2023-09-30T01:01:31;3.43;;;1.90;;
1366;SDS011;16877;48.810;9.282;2023-09-30T01:03:58;3.53;;;2.10;;
1366;SDS011;16877;48.810;9.282;2023-09-30T01:06:28;4.77;;;2.03;;
1366;SDS011;16877;48.810;9.282;2023-09-30T01:08:55;4.00;;;1.93;;
1366;SDS011;16877;48.810;9.282;2023-09-30T01:11:23;3.17;;;1.73;;
1366;SDS011;16877;48.810;9.282;2023-09-30T01:13:51;3.83;;;2.07;;
1366;SDS011;16877;48.810;9.282;2023-09-30T01:16:20;3.13;;;1.50;;
1366;SDS011;16877;48.810;9.282;2023-09-30T01:18:48;6.40;;;2.03;;
1366;SDS011;16877;48.810;9.282;2023-09-30T01:21:18;5.63;;;2.10;;
1366;SDS011;16877;48.810;9.282;2023-09-30T01:23:48;3.20;;;1.63;;
1366;SDS011;16877;48.810;9.282;2023-09-30T01:26:15;2.83;;;1.70;;
1366;SDS011;16877;48.810;9.282;2023-09-30T01:28:43;4.40;;;1.70;;
1366;SDS011;16877;48.810;9.282;2023-09-30T01:31:13;3.53;;;1.77;;
1366;SDS011;16877;48.810;9.282;2023-09-30T01:33:41;3.97;;;2.10;;
1366;SDS011;16877;48.810;9.282;2023-09-30T01:36:09;3.00;;;1.60;;
1366;SDS011;16877;48.810;9.282;2023-09-30T01:38:37;2.80;;;1.60;;
1366;SDS011;16877;48.810;9.282;2023-09-30T01:41:06;3.23;;;1.90;;
1366;SDS011;16877;48.810;9.282;2023-09-30T01:43:35;3.50;;;1.97;;
1366;SDS011;16877;48.810;9.282;2023-09-30T01:46:03;3.47;;;1.83;;
1366;SDS011;16877;48.810;9.282;2023-09-30T01:48:32;4.27;;;2.07;;
1366;SDS011;16877;48.810;9.282;2023-09-30T01:51:00;3.00;;;2.30;;
1366;SDS011;16877;48.810;9.282;2023-09-30T01:53:27;3.83;;;1.90;;
1366;SDS011;16877;48.810;9.282;2023-09-30T01:55:54;3.57;;;2.13;;
1366;SDS011;16877;48.810;9.282;2023-09-30T01:58:23;3.03;;;1.87;;
1366;SDS011;16877;48.810;9.282;2023-09-30T02:00:51;2.80;;;1.63;;
1366;SDS011;16877;48.810;9.282;2023-09-30T02:03:33;4.13;;;2.80;;
1366;SDS011;16877;48.810;9.282;2023-09-30T02:06:01;4.37;;;1.67;;
1366;SDS011;16877;48.810;9.282;2023-09-30T02:08:29;3.93;;;1.80;;
1366;SDS011;16877;48.810;9.282;2023-09-30T02:10:56;2.70;;;1.87;;
1366;SDS011;16877;48.810;9.282;2023-09-30T02:13:26;4.03;;;2.27;;
1366;SDS011;16877;48.810;9.282;2023-09-30T02:15:53;3.43;;;2.30;;
1366;SDS011;16877;48.810;9.282;2023-09-30T02:18:22;2.73;;;1.70;;
1366;SDS011;16877;48.810;9.282;2023-09-30T02:20:50;3.03;;;1.90;;
1366;SDS011;16877;48.810;9.282;2023-09-30T02:23:19;2.70;;;1.60;;
1366;SDS011;16877;48.810;9.282;2023-09-30T02:25:48;3.17;;;2.10;;
1366;SDS011;16877;48.810;9.282;2023-09-30T02:28:16;3.50;;;2.33;;
1366;SDS011;16877;48.810;9.282;2023-09-30T02:30:45;5.20;;;1.93;;
1366;SDS011;16877;48.810;9.282;2023-09-30T02:33:13;3.10;;;1.67;;
1366;SDS011;16877;48.810;9.282;2023-09-30T02:35:43;4.27;;;2.30;;
1366;SDS011;16877;48.810;9.282;2023-09-30T02:38:10;6.40;;;2.00;;
1366;SDS011;16877;48.810;9.282;2023-09-30T02:40:37;3.30;;;1.83;;
1366;SDS011;16877;48.810;9.282;2023-09-30T02:43:05;3.47;;;2.17;;
1366;SDS011;16877;48.810;9.282;2023-09-30T02:45:42;3.40;;;1.90;;
1366;SDS011;16877;48.810;9.282;2023-09-30T02:48:11;3.90;;;2.03;;
1366;SDS011;16877;48.810;9.282;2023-09-30T02:50:38;3.30;;;1.90;;
1366;SDS011;16877;48.810;9.282;2023-09-30T02:53:10;3.20;;;1.90;;
1366;SDS011;16877;48.810;9.282;2023-09-30T02:55:37;3.10;;;1.83;;
1366;SDS011;16877;48.810;9.282;2023-09-30T02:58:04;3.50;;;2.13;;
1366;SDS011;16877;48.810;9.282;2023-09-30T03:00:34;6.63;;;2.70;;
1366;SDS011;16877;48.810;9.282;2023-09-30T03:03:03;4.27;;;2.77;;
1366;SDS011;16877;48.810;9.282;2023-09-30T03:05:32;6.20;;;2.30;;
1366;SDS011;16877;48.810;9.282;2023-09-30T03:08:01;4.50;;;2.60;;
1366;SDS011;16877;48.810;9.282;2023-09-30T03:10:31;3.50;;;2.17;;
1366;SDS011;16877;48.810;9.282;2023-09-30T03:12:59;4.30;;;2.77;;
1366;SDS011;16877;48.810;9.282;2023-09-30T03:15:27;3.73;;;2.13;;
1366;SDS011;16877;48.810;9.282;2023-09-30T03:17:55;4.07;;;2.50;;
1366;SDS011;16877;48.810;9.282;2023-09-30T03:20:24;3.93;;;2.40;;
1366;SDS011;16877;48.810;9.282;2023-09-30T03:22:53;4.90;;;2.63;;
1366;SDS011;16877;48.810;9.282;2023-09-30T03:25:20;3.90;;;2.93;;
1366;SDS011;16877;48.810;9.282;2023-09-30T03:27:47;5.10;;;2.80;;
1366;SDS011;16877;48.810;9.282;2023-09-30T03:30:16;3.37;;;2.50;;
1366;SDS011;16877;48.810;9.282;2023-09-30T03:32:45;5.20;;;2.30;;
1366;SDS011;16877;48.810;9.282;2023-09-30T03:35:13;4.23;;;2.80;;
1366;SDS011;16877;48.810;9.282;2023-09-30T03:37:46;3.20;;;2.10;;
1366;SDS011;16877;48.810;9.282;2023-09-30T03:40:16;4.47;;;2.40;;
1366;SDS011;16877;48.810;9.282;2023-09-30T03:42:49;4.50;;;2.40;;
1366;SDS011;16877;48.810;9.282;2023-09-30T03:45:16;4.23;;;2.57;;
1366;SDS011;16877;48.810;9.282;2023-09-30T03:47:44;4.00;;;2.53;;
1366;SDS011;16877;48.810;9.282;2023-09-30T03:50:13;5.53;;;3.33;;
1366;SDS011;16877;48.810;9.282;2023-09-30T03:52:40;5.43;;;2.80;;
1366;SDS011;16877;48.810;9.282;2023-09-30T03:55:09;4.50;;;2.67;;
1366;SDS011;16877;48.810;9.282;2023-09-30T03:57:39;4.57;;;2.40;;
1366;SDS011;16877;48.810;9.282;2023-09-30T04:00:06;3.37;;;2.10;;
1366;SDS011;16877;48.810;9.282;2023-09-30T04:02:41;3.67;;;2.27;;
1366;SDS011;16877;48.810;9.282;2023-09-30T04:05:10;4.00;;;2.40;;
1366;SDS011;16877;48.810;9.282;2023-09-30T04:07:39;5.07;;;2.77;;
1366;SDS011;16877;48.810;9.282;2023-09-30T04:10:07;5.73;;;2.70;;
1366;SDS011;16877;48.810;9.282;2023-09-30T04:12:35;3.20;;;2.53;;
1366;SDS011;16877;48.810;9.282;2023-09-30T04:15:05;4.00;;;2.60;;
1366;SDS011;16877;48.810;9.282;2023-09-30T04:17:35;5.60;;;3.10;;
1366;SDS011;16877;48.810;9.282;2023-09-30T04:20:06;4.87;;;2.87;;
1366;SDS011;16877;48.810;9.282;2023-09-30T04:22:34;4.50;;;2.33;;
1366;SDS011;16877;48.810;9.282;2023-09-30T04:25:03;4.23;;;2.60;;
1366;SDS011;16877;48.810;9.282;2023-09-30T04:27:41;5.67;;;2.77;;
1366;SDS011;16877;48.810;9.282;2023-09-30T04:30:14;3.63;;;2.33;;
1366;SDS011;16877;48.810;9.282;2023-09-30T04:32:42;5.00;;;2.70;;
1366;SDS011;16877;48.810;9.282;2023-09-30T04:35:10;7.17;;;3.10;;
1366;SDS011;16877;48.810;9.282;2023-09-30T04:37:40;6.40;;;2.93;;
1366;SDS011;16877;48.810;9.282;2023-09-30T04:40:09;6.53;;;3.07;;
1366;SDS011;16877;48.810;9.282;2023-09-30T04:42:40;3.77;;;2.67;;
1366;SDS011;16877;48.810;9.282;2023-09-30T04:45:09;3.80;;;2.70;;
1366;SDS011;16877;48.810;9.282;2023-09-30T04:47:39;5.23;;;3.00;;
1366;SDS011;16877;48.810;9.282;2023-09-30T04:50:10;6.20;;;3.33;;
1366;SDS011;16877;48.810;9.282;2023-09-30T04:52:42;3.50;;;2.87;;
1366;SDS011;16877;48.810;9.282;2023-09-30T04:55:12;4.00;;;2.90;;
1366;SDS011;16877;48.810;9.282;2023-09-30T04:57:41;4.73;;;3.03;;
1366;SDS011;16877;48.810;9.282;2023-09-30T05:00:11;4.60;;;2.90;;
1366;SDS011;16877;48.810;9.282;2023-09-30T05:02:41;5.00;;;3.03;;
1366;SDS011;16877;48.810;9.282;2023-09-30T05:05:10;4.63;;;2.80;;
1366;SDS011;16877;48.810;9.282;2023-09-30T05:07:54;5.40;;;2.60;;
1366;SDS011;16877;48.810;9.282;2023-09-30T05:10:21;5.13;;;3.20;;
1366;SDS011;16877;48.810;9.282;2023-09-30T05:12:49;5.10;;;3.40;;
1366;SDS011;16877;48.810;9.282;2023-09-30T05:15:20;3.97;;;2.50;;
1366;SDS011;16877;48.810;9.282;2023-09-30T05:17:50;5.87;;;3.00;;
1366;SDS011;16877;48.810;9.282;2023-09-30T05:20:17;4.97;;;2.40;;
1366;SDS011;16877;48.810;9.282;2023-09-30T05:22:44;4.93;;;3.20;;
1366;SDS011;16877;48.810;9.282;2023-09-30T05:25:13;4.90;;;2.63;;
1366;SDS011;16877;48.810;9.282;2023-09-30T05:27:42;3.50;;;2.40;;
1366;SDS011;16877;48.810;9.282;2023-09-30T05:30:10;6.27;;;2.67;;
1366;SDS011;16877;48.810;9.282;2023-09-30T05:32:40;4.87;;;3.30;;
1366;SDS011;16877;48.810;9.282;2023-09-30T05:35:18;4.47;;;2.70;;
1366;SDS011;16877;48.810;9.282;2023-09-30T05:37:54;4.37;;;2.67;;
1366;SDS011;16877;48.810;9.282;2023-09-30T05:40:22;5.50;;;2.80;;
1366;SDS011;16877;48.810;9.282;2023-09-30T05:42:52;5.30;;;2.90;;
1366;SDS011;16877;48.810;9.282;2023-09-30T05:45:21;5.23;;;2.63;;
1366;SDS011;16877;48.810;9.282;2023-09-30T05:47:51;6.13;;;3.10;;
1366;SDS011;16877;48.810;9.282;2023-09-30T05:50:21;4.43;;;2.50;;
1366;SDS011;16877;48.810;9.282;2023-09-30T05:52:51;3.47;;;2.30;;
1366;SDS011;16877;48.810;9.282;2023-09-30T05:55:21;4.40;;;2.80;;
1366;SDS011;16877;48.810;9.282;2023-09-30T05:57:50;5.07;;;2.77;;
1366;SDS011;16877;48.810;9.282;2023-09-30T06:00:22;6.30;;;3.77;;
1366;SDS011;16877;48.810;9.282;2023-09-30T06:02:57;4.77;;;3.17;;
1366;SDS011;16877;48.810;9.282;2023-09-30T06:05:33;4.33;;;3.07;;
1366;SDS011;16877;48.810;9.282;2023-09-30T06:08:01;5.03;;;3.10;;
1366;SDS011;16877;48.810;9.282;2023-09-30T06:10:30;4.97;;;2.47;;
1366;SDS011;16877;48.810;9.282;2023-09-30T06:12:57;4.90;;;2.80;;
1366;SDS011;16877;48.810;9.282;2023-09-30T06:15:25;4.73;;;3.00;;
1366;SDS011;16877;48.810;9.282;2023-09-30T06:17:53;4.50;;;3.10;;
1366;SDS011;16877;48.810;9.282;2023-09-30T06:20:21;7.30;;;3.40;;
1366;SDS011;16877;48.810;9.282;2023-09-30T06:22:53;5.27;;;3.00;;
1366;SDS011;16877;48.810;9.282;2023-09-30T06:25:20;4.70;;;2.80;;
1366;SDS011;16877;48.810;9.282;2023-09-30T06:27:49;5.43;;;3.17;;
1366;SDS011;16877;48.810;9.282;2023-09-30T06:30:16;4.70;;;3.00;;
1366;SDS011;16877;48.810;9.282;2023-09-30T06:32:45;6.00;;;3.33;;
1366;SDS011;16877;48.810;9.282;2023-09-30T06:35:13;3.63;;;2.30;;
1366;SDS011;16877;48.810;9.282;2023-09-30T06:37:40;5.00;;;2.40;;
1366;SDS011;16877;48.810;9.282;2023-09-30T06:40:13;5.10;;;3.00;;
1366;SDS011;16877;48.810;9.282;2023-09-30T06:42:40;4.40;;;2.80;;
1366;SDS011;16877;48.810;9.282;2023-09-30T06:45:08;4.93;;;3.10;;
1366;SDS011;16877;48.810;9.282;2023-09-30T06:47:38;4.50;;;2.50;;
1366;SDS011;16877;48.810;9.282;2023-09-30T06:50:11;4.13;;;2.53;;
1366;SDS011;16877;48.810;9.282;2023-09-30T06:52:41;6.40;;;3.33;;
1366;SDS011;16877;48.810;9.282;2023-09-30T06:55:12;5.30;;;3.27;;
1366;SDS011;16877;48.810;9.282;2023-09-30T06:57:41;4.63;;;3.23;;
1366;SDS011;16877;48.810;9.282;2023-09-30T07:00:09;6.07;;;3.20;;
1366;SDS011;16877;48.810;9.282;2023-09-30T07:02:40;3.70;;;2.40;;
1366;SDS011;16877;48.810;9.282;2023-09-30T07:05:08;5.37;;;2.90;;
1366;SDS011;16877;48.810;9.282;2023-09-30T07:07:36;5.67;;;2.87;;
1366;SDS011;16877;48.810;9.282;2023-09-30T07:10:07;6.30;;;3.07;;
1366;SDS011;16877;48.810;9.282;2023-09-30T07:12:37;5.70;;;2.73;;
1366;SDS011;16877;48.810;9.282;2023-09-30T07:15:05;6.50;;;3.30;;
1366;SDS011;16877;48.810;9.282;2023-09-30T07:17:34;4.40;;;2.70;;
1366;SDS011;16877;48.810;9.282;2023-09-30T07:20:01;6.27;;;3.20;;
1366;SDS011;16877;48.810;9.282;2023-09-30T07:22:29;5.37;;;3.40;;
1366;SDS011;16877;48.810;9.282;2023-09-30T07:24:58;7.40;;;2.77;;
1366;SDS011;16877;48.810;9.282;2023-09-30T07:27:26;4.10;;;2.77;;
1366;SDS011;16877;48.810;9.282;2023-09-30T07:30:01;5.73;;;2.93;;
1366;SDS011;16877;48.810;9.282;2023-09-30T07:32:32;4.13;;;2.93;;
1366;SDS011;16877;48.810;9.282;2023-09-30T07:34:59;6.17;;;3.57;;
1366;SDS011;16877;48.810;9.282;2023-09-30T07:37:26;5.17;;;2.97;;
1366;SDS011;16877;48.810;9.282;2023-09-30T07:39:56;4.20;;;2.73;;
1366;SDS011;16877;48.810;9.282;2023-09-30T07:42:23;4.33;;;3.13;;
1366;SDS011;16877;48.810;9.282;2023-09-30T07:44:51;5.10;;;2.93;;
1366;SDS011;16877;48.810;9.282;2023-09-30T07:47:20;5.50;;;3.07;;
1366;SDS011;16877;48.810;9.282;2023-09-30T07:49:48;4.10;;;2.80;;
1366;SDS011;16877;48.810;9.282;2023-09-30T07:52:16;4.93;;;3.30;;
1366;SDS011;16877;48.810;9.282;2023-09-30T07:54:42;4.70;;;3.20;;
1366;SDS011;16877;48.810;9.282;2023-09-30T07:57:10;5.90;;;2.97;;
1366;SDS011;16877;48.810;9.282;2023-09-30T07:59:37;7.33;;;3.57;;
1366;SDS011;16877;48.810;9.282;2023-09-30T08:02:04;4.90;;;3.13;;
1366;SDS011;16877;48.810;9.282;2023-09-30T08:04:37;4.40;;;2.60;;
1366;SDS011;16877;48.810;9.282;2023-09-30T08:07:05;4.70;;;2.97;;
1366;SDS011;16877;48.810;9.282;2023-09-30T08:09:34;6.43;;;3.33;;
1366;SDS011;16877;48.810;9.282;2023-09-30T08:12:02;5.50;;;2.40;;
1366;SDS011;16877;48.810;9.282;2023-09-30T08:14:36;4.33;;;2.60;;
1366;SDS011;16877;48.810;9.282;2023-09-30T08:17:03;4.60;;;2.77;;
1366;SDS011;16877;48.810;9.282;2023-09-30T08:19:31;4.50;;;2.63;;
1366;SDS011;16877;48.810;9.282;2023-09-30T08:22:00;4.97;;;2.47;;
1366;SDS011;16877;48.810;9.282;2023-09-30T08:24:28;4.93;;;2.83;;
1366;SDS011;16877;48.810;9.282;2023-09-30T08:26:56;5.57;;;2.80;;
1366;SDS011;16877;48.810;9.282;2023-09-30T08:29:23;3.20;;;2.50;;
1366;SDS011;16877;48.810;9.282;2023-09-30T08:31:51;5.50;;;2.77;;
1366;SDS011;16877;48.810;9.282;2023-09-30T08:34:18;4.53;;;2.20;;
1366;SDS011;16877;48.810;9.282;2023-09-30T08:36:48;6.77;;;2.90;;
1366;SDS011;16877;48.810;9.282;2023-09-30T08:39:19;5.07;;;3.27;;
1366;SDS011;16877;48.810;9.282;2023-09-30T08:42:01;4.50;;;2.80;;
1366;SDS011;16877;48.810;9.282;2023-09-30T08:44:29;5.27;;;2.67;;
1366;SDS011;16877;48.810;9.282;2023-09-30T08:46:56;5.03;;;2.57;;
1366;SDS011;16877;48.810;9.282;2023-09-30T08:49:25;4.10;;;2.33;;
1366;SDS011;16877;48.810;9.282;2023-09-30T08:51:53;5.10;;;3.37;;
1366;SDS011;16877;48.810;9.282;2023-09-30T08:54:25;6.97;;;3.10;;
1366;SDS011;16877;48.810;9.282;2023-09-30T08:56:53;6.00;;;3.00;;
1366;SDS011;16877;48.810;9.282;2023-09-30T08:59:20;5.67;;;3.07;;
1366;SDS011;16877;48.810;9.282;2023-09-30T09:01:49;4.63;;;2.60;;
1366;SDS011;16877;48.810;9.282;2023-09-30T09:04:18;6.73;;;3.13;;
1366;SDS011;16877;48.810;9.282;2023-09-30T09:06:49;5.13;;;3.33;;
1366;SDS011;16877;48.810;9.282;2023-09-30T09:09:20;6.77;;;3.60;;
1366;SDS011;16877;48.810;9.282;2023-09-30T09:11:49;4.37;;;2.80;;
1366;SDS011;16877;48.810;9.282;2023-09-30T09:14:16;5.10;;;3.10;;
1366;SDS011;16877;48.810;9.282;2023-09-30T09:16:50;3.90;;;2.50;;
1366;SDS011;16877;48.810;9.282;2023-09-30T09:19:19;5.33;;;3.10;;
1366;SDS011;16877;48.810;9.282;2023-09-30T09:21:53;5.03;;;2.90;;
1366;SDS011;16877;48.810;9.282;2023-09-30T09:24:28;5.20;;;2.90;;
1366;SDS011;16877;48.810;9.282;2023-09-30T09:27:12;5.17;;;2.83;;
1366;SDS011;16877;48.810;9.282;2023-09-30T09:29:42;4.30;;;2.67;;
1366;SDS011;16877;48.810;9.282;2023-09-30T09:32:13;6.03;;;3.13;;
1366;SDS011;16877;48.810;9.282;2023-09-30T09:34:42;4.83;;;3.30;;
1366;SDS011;16877;48.810;9.282;2023-09-30T09:37:13;5.13;;;3.30;;
1366;SDS011;16877;48.810;9.282;2023-09-30T09:39:50;5.90;;;2.97;;
1366;SDS011;16877;48.810;9.282;2023-09-30T09:42:26;5.73;;;3.23;;
1366;SDS011;16877;48.810;9.282;2023-09-30T09:44:55;5.63;;;3.50;;
1366;SDS011;16877;48.810;9.282;2023-09-30T09:47:24;5.43;;;2.87;;
1366;SDS011;16877;48.810;9.282;2023-09-30T09:49:56;4.30;;;2.53;;
1366;SDS011;16877;48.810;9.282;2023-09-30T09:52:26;8.30;;;4.03;;
1366;SDS011;16877;48.810;9.282;2023-09-30T09:54:54;5.57;;;2.53;;
1366;SDS011;16877;48.810;9.282;2023-09-30T09:57:23;4.87;;;2.77;;
1366;SDS011;16877;48.810;9.282;2023-09-30T09:59:55;4.43;;;2.87;;
1366;SDS011;16877;48.810;9.282;2023-09-30T10:02:23;4.40;;;3.00;;
1366;SDS011;16877;48.810;9.282;2023-09-30T10:04:53;5.13;;;3.27;;
1366;SDS011;16877;48.810;9.282;2023-09-30T10:07:24;4.40;;;2.70;;
1366;SDS011;16877;48.810;9.282;2023-09-30T10:09:55;4.30;;;3.37;;
1366;SDS011;16877;48.810;9.282;2023-09-30T10:12:26;5.00;;;3.10;;
1366;SDS011;16877;48.810;9.282;2023-09-30T10:15:16;3.47;;;2.40;;
1366;SDS011;16877;48.810;9.282;2023-09-30T10:18:02;5.27;;;3.57;;
1366;SDS011;16877;48.810;9.282;2023-09-30T10:20:32;6.23;;;3.73;;
1366;SDS011;16877;48.810;9.282;2023-09-30T10:25:53;5.40;;;3.83;;
1366;SDS011;16877;48.810;9.282;2023-09-30T10:28:36;5.47;;;3.33;;
1366;SDS011;16877;48.810;9.282;2023-09-30T10:31:11;4.97;;;3.23;;
1366;SDS011;16877;48.810;9.282;2023-09-30T10:36:44;6.30;;;3.37;;
1366;SDS011;16877;48.810;9.282;2023-09-30T10:39:13;6.40;;;3.90;;
1366;SDS011;16877;48.810;9.282;2023-09-30T10:41:48;5.57;;;3.90;;
1366;SDS011;16877;48.810;9.282;2023-09-30T10:47:00;6.47;;;4.33;;
1366;SDS011;16877;48.810;9.282;2023-09-30T10:50:04;6.20;;;4.10;;
1366;SDS011;16877;48.810;9.282;2023-09-30T10:53:16;5.57;;;3.80;;
1366;SDS011;16877;48.810;9.282;2023-09-30T10:55:45;6.00;;;4.70;;
1366;SDS011;16877;48.810;9.282;2023-09-30T10:58:12;5.37;;;4.00;;
1366;SDS011;16877;48.810;9.282;2023-09-30T11:00:47;8.10;;;5.93;;
1366;SDS011;16877;48.810;9.282;2023-09-30T11:03:19;7.27;;;5.10;;
1366;SDS011;16877;48.810;9.282;2023-09-30T11:05:47;5.83;;;4.23;;
1366;SDS011;16877;48.810;9.282;2023-09-30T11:08:16;6.77;;;5.03;;
1366;SDS011;16877;48.810;9.282;2023-09-30T11:10:48;9.10;;;5.00;;
1366;SDS011;16877;48.810;9.282;2023-09-30T11:13:15;6.40;;;4.60;;
1366;SDS011;16877;48.810;9.282;2023-09-30T11:15:43;8.37;;;5.37;;
1366;SDS011;16877;48.810;9.282;2023-09-30T11:18:16;5.80;;;4.50;;
1366;SDS011;16877;48.810;9.282;2023-09-30T11:20:44;7.30;;;4.80;;
1366;SDS011;16877;48.810;9.282;2023-09-30T11:23:27;7.53;;;5.90;;
1366;SDS011;16877;48.810;9.282;2023-09-30T11:26:09;6.33;;;4.50;;
1366;SDS011;16877;48.810;9.282;2023-09-30T11:28:41;7.90;;;5.80;;
1366;SDS011;16877;48.810;9.282;2023-09-30T11:31:24;6.40;;;5.03;;
1366;SDS011;16877;48.810;9.282;2023-09-30T11:34:00;9.57;;;6.27;;
1366;SDS011;16877;48.810;9.282;2023-09-30T11:36:29;13.93;;;6.07;;
1366;SDS011;16877;48.810;9.282;2023-09-30T11:39:20;7.93;;;4.90;;
1366;SDS011;16877;48.810;9.282;2023-09-30T11:41:49;8.30;;;5.97;;
1366;SDS011;16877;48.810;9.282;2023-09-30T11:44:32;9.13;;;5.60;;
1366;SDS011;16877;48.810;9.282;2023-09-30T11:47:12;8.13;;;5.33;;
1366;SDS011;16877;48.810;9.282;2023-09-30T11:49:42;9.43;;;6.13;;
1366;SDS011;16877;48.810;9.282;2023-09-30T11:52:11;8.27;;;5.27;;
1366;SDS011;16877;48.810;9.282;2023-09-30T11:54:41;7.87;;;5.90;;
1366;SDS011;16877;48.810;9.282;2023-09-30T11:57:13;8.33;;;5.83;;
1366;SDS011;16877;48.810;9.282;2023-09-30T11:59:42;7.80;;;5.83;;
1366;SDS011;16877;48.810;9.282;2023-09-30T12:02:10;8.27;;;6.00;;
1366;SDS011;16877;48.810;9.282;2023-09-30T12:04:39;7.97;;;5.70;;
1366;SDS011;16877;48.810;9.282;2023-09-30T12:07:10;9.77;;;6.50;;
1366;SDS011;16877;48.810;9.282;2023-09-30T12:09:37;8.20;;;5.43;;
1366;SDS011;16877;48.810;9.282;2023-09-30T12:12:05;7.53;;;5.87;;
1366;SDS011;16877;48.810;9.282;2023-09-30T12:14:34;7.47;;;5.20;;
1366;SDS011;16877;48.810;9.282;2023-09-30T12:17:01;10.07;;;6.67;;
1366;SDS011;16877;48.810;9.282;2023-09-30T12:19:28;9.37;;;5.93;;
1366;SDS011;16877;48.810;9.282;2023-09-30T12:21:58;7.73;;;5.53;;
1366;SDS011;16877;48.810;9.282;2023-09-30T12:24:25;7.27;;;5.47;;
1366;SDS011;16877;48.810;9.282;2023-09-30T12:26:53;8.27;;;5.43;;
1366;SDS011;16877;48.810;9.282;2023-09-30T12:29:21;8.27;;;6.20;;
1366;SDS011;16877;48.810;9.282;2023-09-30T12:31:49;7.10;;;5.13;;
1366;SDS011;16877;48.810;9.282;2023-09-30T12:34:17;9.30;;;6.50;;
1366;SDS011;16877;48.810;9.282;2023-09-30T12:36:45;8.53;;;6.33;;
1366;SDS011;16877;48.810;9.282;2023-09-30T12:39:16;8.57;;;5.70;;
1366;SDS011;16877;48.810;9.282;2023-09-30T12:41:49;8.33;;;5.90;;
1366;SDS011;16877;48.810;9.282;2023-09-30T12:44:16;8.20;;;6.00;;
1366;SDS011;16877;48.810;9.282;2023-09-30T12:46:44;8.17;;;6.13;;
1366;SDS011;16877;48.810;9.282;2023-09-30T12:49:11;10.33;;;7.20;;
1366;SDS011;16877;48.810;9.282;2023-09-30T12:51:39;8.90;;;5.97;;
1366;SDS011;16877;48.810;9.282;2023-09-30T12:54:22;10.60;;;5.87;;
1366;SDS011;16877;48.810;9.282;2023-09-30T12:56:50;8.00;;;5.50;;
1366;SDS011;16877;48.810;9.282;2023-09-30T12:59:17;7.77;;;6.20;;
1366;SDS011;16877;48.810;9.282;2023-09-30T13:01:45;8.27;;;6.00;;
1366;SDS011;16877;48.810;9.282;2023-09-30T13:04:13;10.30;;;6.47;;
1366;SDS011;16877;48.810;9.282;2023-09-30T13:06:52;9.30;;;6.50;;
1366;SDS011;16877;48.810;9.282;2023-09-30T13:09:21;7.00;;;4.87;;
1366;SDS011;16877;48.810;9.282;2023-09-30T13:11:49;7.80;;;5.60;;
1366;SDS011;16877;48.810;9.282;2023-09-30T13:14:17;9.17;;;6.10;;
1366;SDS011;16877;48.810;9.282;2023-09-30T13:16:44;9.63;;;5.83;;
1366;SDS011;16877;48.810;9.282;2023-09-30T13:19:14;8.47;;;5.83;;
1366;SDS011;16877;48.810;9.282;2023-09-30T13:21:46;8.50;;;5.50;;
1366;SDS011;16877;48.810;9.282;2023-09-30T13:24:18;7.67;;;5.57;;
1366;SDS011;16877;48.810;9.282;2023-09-30T13:26:47;7.23;;;5.07;;
1366;SDS011;16877;48.810;9.282;2023-09-30T13:29:17;8.10;;;5.67;;
1366;SDS011;16877;48.810;9.282;2023-09-30T13:31:44;9.37;;;6.00;;
1366;SDS011;16877;48.810;9.282;2023-09-30T13:34:12;8.23;;;5.80;;
1366;SDS011;16877;48.810;9.282;2023-09-30T13:36:41;7.80;;;5.23;;
1366;SDS011;16877;48.810;9.282;2023-09-30T13:39:08;7.30;;;5.17;;
1366;SDS011;16877;48.810;9.282;2023-09-30T13:41:38;8.43;;;6.47;;
1366;SDS011;16877;48.810;9.282;2023-09-30T13:44:07;9.50;;;7.00;;
1366;SDS011;16877;48.810;9.282;2023-09-30T13:46:35;8.43;;;6.20;;
1366;SDS011;16877;48.810;9.282;2023-09-30T13:49:02;7.47;;;5.93;;
1366;SDS011;16877;48.810;9.282;2023-09-30T13:51:30;9.50;;;6.93;;
1366;SDS011;16877;48.810;9.282;2023-09-30T13:53:58;10.40;;;6.97;;
1366;SDS011;16877;48.810;9.282;2023-09-30T13:56:26;8.77;;;6.30;;
1366;SDS011;16877;48.810;9.282;2023-09-30T13:58:55;9.20;;;6.80;;
1366;SDS011;16877;48.810;9.282;2023-09-30T14:01:24;8.47;;;6.03;;
1366;SDS011;16877;48.810;9.282;2023-09-30T14:03:52;7.40;;;5.30;;
1366;SDS011;16877;48.810;9.282;2023-09-30T14:06:23;8.37;;;5.77;;
1366;SDS011;16877;48.810;9.282;2023-09-30T14:08:50;6.40;;;4.93;;
1366;SDS011;16877;48.810;9.282;2023-09-30T14:11:18;9.80;;;6.00;;
1366;SDS011;16877;48.810;9.282;2023-09-30T14:13:48;8.70;;;6.10;;
1366;SDS011;16877;48.810;9.282;2023-09-30T14:16:15;9.37;;;6.27;;
1366;SDS011;16877;48.810;9.282;2023-09-30T14:18:44;9.90;;;6.57;;
1366;SDS011;16877;48.810;9.282;2023-09-30T14:21:11;8.10;;;6.17;;
1366;SDS011;16877;48.810;9.282;2023-09-30T14:23:40;8.23;;;6.60;;
1366;SDS011;16877;48.810;9.282;2023-09-30T14:26:10;10.60;;;5.60;;
1366;SDS011;16877;48.810;9.282;2023-09-30T14:28:37;8.10;;;5.93;;
1366;SDS011;16877;48.810;9.282;2023-09-30T14:31:04;7.80;;;5.40;;
1366;SDS011;16877;48.810;9.282;2023-09-30T14:33:32;10.17;;;6.33;;
1366;SDS011;16877;48.810;9.282;2023-09-30T14:36:01;7.87;;;6.00;;
1366;SDS011;16877;48.810;9.282;2023-09-30T14:38:30;9.87;;;6.03;;
1366;SDS011;16877;48.810;9.282;2023-09-30T14:40:58;8.67;;;5.80;;
1366;SDS011;16877;48.810;9.282;2023-09-30T14:43:25;6.87;;;5.57;;
1366;SDS011;16877;48.810;9.282;2023-09-30T14:45:53;9.07;;;5.83;;
1366;SDS011;16877;48.810;9.282;2023-09-30T14:48:22;9.23;;;5.90;;
1366;SDS011;16877;48.810;9.282;2023-09-30T14:50:49;8.60;;;5.20;;
1366;SDS011;16877;48.810;9.282;2023-09-30T14:53:20;8.93;;;6.10;;
1366;SDS011;16877;48.810;9.282;2023-09-30T14:55:48;7.40;;;5.50;;
1366;SDS011;16877;48.810;9.282;2023-09-30T14:58:16;10.50;;;6.33;;
1366;SDS011;16877;48.810;9.282;2023-09-30T15:00:43;8.53;;;6.00;;
1366;SDS011;16877;48.810;9.282;2023-09-30T15:03:12;7.97;;;5.97;;
1366;SDS011;16877;48.810;9.282;2023-09-30T15:05:39;9.40;;;6.13;;
1366;SDS011;16877;48.810;9.282;2023-09-30T15:08:07;7.73;;;5.87;;
1366;SDS011;16877;48.810;9.282;2023-09-30T15:10:37;8.83;;;6.27;;
1366;SDS011;16877;48.810;9.282;2023-09-30T15:13:04;8.23;;;6.20;;
1366;SDS011;16877;48.810;9.282;2023-09-30T15:15:35;9.73;;;6.23;;
1366;SDS011;16877;48.810;9.282;2023-09-30T15:18:03;9.07;;;6.40;;
1366;SDS011;16877;48.810;9.282;2023-09-30T15:20:37;7.73;;;5.80;;
1366;SDS011;16877;48.810;9.282;2023-09-30T15:23:04;9.13;;;6.20;;
1366;SDS011;16877;48.810;9.282;2023-09-30T15:25:32;9.00;;;5.60;;